sensor_id;sensor_type;location;lat;lon;timestamp;temperature;humidity
22035;DHT22;11181;51.002;4.356;2023-12-22T00:01:33;11.20;99.90
22035;DHT22;11181;51.002;4.356;2023-12-22T00:04:01;11.20;99.90
22035;DHT22;11181;51.002;4.356;2023-12-22T00:06:28;11.20;99.90
22035;DHT22;11181;51.002;4.356;2023-12-22T00:08:55;11.10;99.90
22035;DHT22;11181;51.002;4.356;2023-12-22T00:11:23;11.10;99.90
22035;DHT22;11181;51.002;4.356;2023-12-22T00:13:50;11.10;99.90
22035;DHT22;11181;51.002;4.356;2023-12-22T00:16:17;11.00;99.90
22035;DHT22;11181;51.002;4.356;2023-12-22T00:18:44;11.00;99.90
22035;DHT22;11181;51.002;4.356;2023-12-22T00:21:11;10.90;99.90
22035;DHT22;11181;51.002;4.356;2023-12-22T00:23:38;10.80;99.90
22035;DHT22;11181;51.002;4.356;2023-12-22T00:26:05;10.80;99.90
22035;DHT22;11181;51.002;4.356;2023-12-22T00:28:33;10.70;99.90
22035;DHT22;11181;51.002;4.356;2023-12-22T00:31:00;10.80;99.90
22035;DHT22;11181;51.002;4.356;2023-12-22T00:33:27;10.80;99.90
22035;DHT22;11181;51.002;4.356;2023-12-22T00:35:54;10.80;99.90
22035;DHT22;11181;51.002;4.356;2023-12-22T00:38:21;10.80;99.90
22035;DHT22;11181;51.002;4.356;2023-12-22T00:40:47;10.70;99.90
22035;DHT22;11181;51.002;4.356;2023-12-22T00:43:14;10.70;99.90
22035;DHT22;11181;51.002;4.356;2023-12-22T00:45:42;10.70;99.90
22035;DHT22;11181;51.002;4.356;2023-12-22T00:48:09;10.60;99.90
22035;DHT22;11181;51.002;4.356;2023-12-22T00:50:36;10.60;99.90
22035;DHT22;11181;51.002;4.356;2023-12-22T00:53:03;10.60;99.90
22035;DHT22;11181;51.002;4.356;2023-12-22T00:55:30;10.60;99.90
22035;DHT22;11181;51.002;4.356;2023-12-22T00:57:57;10.60;99.90
22035;DHT22;11181;51.002;4.356;2023-12-22T01:00:24;10.60;99.90
22035;DHT22;11181;51.002;4.356;2023-12-22T01:02:52;10.60;99.90
22035;DHT22;11181;51.002;4.356;2023-12-22T01:05:19;10.50;99.90
22035;DHT22;11181;51.002;4.356;2023-12-22T01:07:46;10.50;99.90
22035;DHT22;11181;51.002;4.356;2023-12-22T01:10:13;10.50;99.90
22035;DHT22;11181;51.002;4.356;2023-12-22T01:12:39;10.50;99.90
22035;DHT22;11181;51.002;4.356;2023-12-22T01:15:07;10.50;99.90
22035;DHT22;11181;51.002;4.356;2023-12-22T01:17:34;10.50;99.90
22035;DHT22;11181;51.002;4.356;2023-12-22T01:20:02;10.60;99.90
22035;DHT22;11181;51.002;4.356;2023-12-22T01:22:29;10.60;99.90
22035;DHT22;11181;51.002;4.356;2023-12-22T01:24:58;10.60;99.90
22035;DHT22;11181;51.002;4.356;2023-12-22T01:27:26;10.60;99.90
22035;DHT22;11181;51.002;4.356;2023-12-22T01:29:53;10.60;99.90
22035;DHT22;11181;51.002;4.356;2023-12-22T01:32:20;10.60;99.90
22035;DHT22;11181;51.002;4.356;2023-12-22T01:34:47;10.60;99.90
22035;DHT22;11181;51.002;4.356;2023-12-22T01:37:15;10.70;99.90
22035;DHT22;11181;51.002;4.356;2023-12-22T01:39:42;10.70;99.90
22035;DHT22;11181;51.002;4.356;2023-12-22T01:42:12;10.70;99.90
22035;DHT22;11181;51.002;4.356;2023-12-22T01:44:38;10.70;99.90
22035;DHT22;11181;51.002;4.356;2023-12-22T01:47:05;10.80;99.90
22035;DHT22;11181;51.002;4.356;2023-12-22T01:49:32;10.80;99.90
22035;DHT22;11181;51.002;4.356;2023-12-22T01:51:59;10.90;99.90
22035;DHT22;11181;51.002;4.356;2023-12-22T01:54:29;10.90;99.90
22035;DHT22;11181;51.002;4.356;2023-12-22T01:56:56;10.90;99.90
22035;DHT22;11181;51.002;4.356;2023-12-22T01:59:23;10.90;99.90
22035;DHT22;11181;51.002;4.356;2023-12-22T02:01:50;10.80;99.90
22035;DHT22;11181;51.002;4.356;2023-12-22T02:04:18;10.80;99.90
22035;DHT22;11181;51.002;4.356;2023-12-22T02:06:46;10.80;99.90
22035;DHT22;11181;51.002;4.356;2023-12-22T02:09:12;10.90;99.90
22035;DHT22;11181;51.002;4.356;2023-12-22T02:11:41;10.80;99.90
22035;DHT22;11181;51.002;4.356;2023-12-22T02:14:08;10.80;99.90
22035;DHT22;11181;51.002;4.356;2023-12-22T02:16:40;10.80;99.90
22035;DHT22;11181;51.002;4.356;2023-12-22T02:19:20;10.90;99.90
22035;DHT22;11181;51.002;4.356;2023-12-22T02:22:02;10.80;99.90
22035;DHT22;11181;51.002;4.356;2023-12-22T02:24:31;10.90;99.90
22035;DHT22;11181;51.002;4.356;2023-12-22T02:27:04;10.90;99.90
22035;DHT22;11181;51.002;4.356;2023-12-22T02:29:33;10.90;99.90
22035;DHT22;11181;51.002;4.356;2023-12-22T02:32:04;10.90;99.90
22035;DHT22;11181;51.002;4.356;2023-12-22T02:34:35;10.90;99.90
22035;DHT22;11181;51.002;4.356;2023-12-22T02:37:05;11.00;99.90
22035;DHT22;11181;51.002;4.356;2023-12-22T02:39:34;11.00;99.90
22035;DHT22;11181;51.002;4.356;2023-12-22T02:42:01;10.90;99.90
22035;DHT22;11181;51.002;4.356;2023-12-22T02:44:29;10.90;99.90
22035;DHT22;11181;51.002;4.356;2023-12-22T02:46:56;11.00;99.90
22035;DHT22;11181;51.002;4.356;2023-12-22T02:49:23;11.00;99.90
22035;DHT22;11181;51.002;4.356;2023-12-22T02:51:50;10.90;99.90
22035;DHT22;11181;51.002;4.356;2023-12-22T02:54:19;10.90;99.90
22035;DHT22;11181;51.002;4.356;2023-12-22T02:56:48;10.80;99.90
22035;DHT22;11181;51.002;4.356;2023-12-22T02:59:15;10.80;99.90
22035;DHT22;11181;51.002;4.356;2023-12-22T03:01:41;10.70;99.90
22035;DHT22;11181;51.002;4.356;2023-12-22T03:04:08;10.70;99.90
22035;DHT22;11181;51.002;4.356;2023-12-22T03:06:35;10.70;99.90
22035;DHT22;11181;51.002;4.356;2023-12-22T03:09:02;10.80;99.90
22035;DHT22;11181;51.002;4.356;2023-12-22T03:11:29;10.70;99.90
22035;DHT22;11181;51.002;4.356;2023-12-22T03:13:57;10.60;99.90
22035;DHT22;11181;51.002;4.356;2023-12-22T03:16:24;10.60;99.90
22035;DHT22;11181;51.002;4.356;2023-12-22T03:18:52;10.60;99.90
22035;DHT22;11181;51.002;4.356;2023-12-22T03:21:19;10.60;99.90
22035;DHT22;11181;51.002;4.356;2023-12-22T03:23:46;10.70;99.90
22035;DHT22;11181;51.002;4.356;2023-12-22T03:26:13;10.70;99.90
22035;DHT22;11181;51.002;4.356;2023-12-22T03:28:40;10.70;99.90
22035;DHT22;11181;51.002;4.356;2023-12-22T03:31:08;10.70;99.90
22035;DHT22;11181;51.002;4.356;2023-12-22T03:33:35;10.70;99.90
22035;DHT22;11181;51.002;4.356;2023-12-22T03:36:02;10.70;99.90
22035;DHT22;11181;51.002;4.356;2023-12-22T03:38:29;10.70;99.90
22035;DHT22;11181;51.002;4.356;2023-12-22T03:40:56;10.70;99.90
22035;DHT22;11181;51.002;4.356;2023-12-22T03:43:22;10.70;99.90
22035;DHT22;11181;51.002;4.356;2023-12-22T03:45:49;10.60;99.90
22035;DHT22;11181;51.002;4.356;2023-12-22T03:48:18;10.60;99.90
22035;DHT22;11181;51.002;4.356;2023-12-22T03:50:45;10.60;99.90
22035;DHT22;11181;51.002;4.356;2023-12-22T03:53:12;10.50;99.90
22035;DHT22;11181;51.002;4.356;2023-12-22T03:55:39;10.40;99.90
22035;DHT22;11181;51.002;4.356;2023-12-22T03:58:06;10.30;99.90
22035;DHT22;11181;51.002;4.356;2023-12-22T04:00:33;10.40;99.90
22035;DHT22;11181;51.002;4.356;2023-12-22T04:03:01;10.20;99.90
22035;DHT22;11181;51.002;4.356;2023-12-22T04:05:29;10.20;99.90
22035;DHT22;11181;51.002;4.356;2023-12-22T04:07:56;10.30;99.90
22035;DHT22;11181;51.002;4.356;2023-12-22T04:10:23;10.30;99.90
22035;DHT22;11181;51.002;4.356;2023-12-22T04:12:50;10.30;99.90
22035;DHT22;11181;51.002;4.356;2023-12-22T04:15:17;10.30;99.90
22035;DHT22;11181;51.002;4.356;2023-12-22T04:17:44;10.20;99.90
22035;DHT22;11181;51.002;4.356;2023-12-22T04:20:11;10.20;99.90
22035;DHT22;11181;51.002;4.356;2023-12-22T04:22:40;10.20;99.90
22035;DHT22;11181;51.002;4.356;2023-12-22T04:25:07;10.20;99.90
22035;DHT22;11181;51.002;4.356;2023-12-22T04:27:35;10.20;99.90
22035;DHT22;11181;51.002;4.356;2023-12-22T04:30:02;10.20;99.90
22035;DHT22;11181;51.002;4.356;2023-12-22T04:32:29;10.20;99.90
22035;DHT22;11181;51.002;4.356;2023-12-22T04:34:55;10.20;99.90
22035;DHT22;11181;51.002;4.356;2023-12-22T04:37:21;10.10;99.90
22035;DHT22;11181;51.002;4.356;2023-12-22T04:39:51;10.10;99.90
22035;DHT22;11181;51.002;4.356;2023-12-22T04:42:20;10.10;99.90
22035;DHT22;11181;51.002;4.356;2023-12-22T04:44:47;10.00;99.90
22035;DHT22;11181;51.002;4.356;2023-12-22T04:47:15;10.00;99.90
22035;DHT22;11181;51.002;4.356;2023-12-22T04:49:42;10.00;99.90
22035;DHT22;11181;51.002;4.356;2023-12-22T04:52:10;10.00;99.90
22035;DHT22;11181;51.002;4.356;2023-12-22T04:54:37;10.10;99.90
22035;DHT22;11181;51.002;4.356;2023-12-22T04:57:05;10.10;99.90
22035;DHT22;11181;51.002;4.356;2023-12-22T04:59:32;10.00;99.90
22035;DHT22;11181;51.002;4.356;2023-12-22T05:01:59;10.00;99.90
22035;DHT22;11181;51.002;4.356;2023-12-22T05:04:26;10.00;99.90
22035;DHT22;11181;51.002;4.356;2023-12-22T05:06:53;10.00;99.90
22035;DHT22;11181;51.002;4.356;2023-12-22T05:09:20;10.10;99.90
22035;DHT22;11181;51.002;4.356;2023-12-22T05:11:48;10.20;99.90
22035;DHT22;11181;51.002;4.356;2023-12-22T05:14:16;10.20;99.90
22035;DHT22;11181;51.002;4.356;2023-12-22T05:16:43;10.30;99.90
22035;DHT22;11181;51.002;4.356;2023-12-22T05:19:10;10.30;99.90
22035;DHT22;11181;51.002;4.356;2023-12-22T05:21:37;10.40;99.90
22035;DHT22;11181;51.002;4.356;2023-12-22T05:24:05;10.40;99.90
22035;DHT22;11181;51.002;4.356;2023-12-22T05:26:32;10.40;99.90
22035;DHT22;11181;51.002;4.356;2023-12-22T05:28:58;10.50;99.90
22035;DHT22;11181;51.002;4.356;2023-12-22T05:31:29;10.50;99.90
22035;DHT22;11181;51.002;4.356;2023-12-22T05:33:58;10.60;99.90
22035;DHT22;11181;51.002;4.356;2023-12-22T05:36:25;10.60;99.90
22035;DHT22;11181;51.002;4.356;2023-12-22T05:38:52;10.60;99.90
22035;DHT22;11181;51.002;4.356;2023-12-22T05:41:19;10.60;99.90
22035;DHT22;11181;51.002;4.356;2023-12-22T05:43:46;10.60;99.90
22035;DHT22;11181;51.002;4.356;2023-12-22T05:46:13;10.70;99.90
22035;DHT22;11181;51.002;4.356;2023-12-22T05:48:41;10.70;99.90
22035;DHT22;11181;51.002;4.356;2023-12-22T05:51:08;10.80;99.90
22035;DHT22;11181;51.002;4.356;2023-12-22T05:53:39;10.80;99.90
22035;DHT22;11181;51.002;4.356;2023-12-22T05:56:16;10.80;99.90
22035;DHT22;11181;51.002;4.356;2023-12-22T05:58:43;10.90;99.90
22035;DHT22;11181;51.002;4.356;2023-12-22T06:01:14;10.90;99.90
22035;DHT22;11181;51.002;4.356;2023-12-22T06:03:43;10.90;99.90
22035;DHT22;11181;51.002;4.356;2023-12-22T06:06:10;10.90;99.90
22035;DHT22;11181;51.002;4.356;2023-12-22T06:08:37;10.90;99.90
22035;DHT22;11181;51.002;4.356;2023-12-22T06:11:04;10.90;99.90
22035;DHT22;11181;51.002;4.356;2023-12-22T06:13:31;10.90;99.90
22035;DHT22;11181;51.002;4.356;2023-12-22T06:15:58;10.90;99.90
22035;DHT22;11181;51.002;4.356;2023-12-22T06:18:25;10.80;99.90
22035;DHT22;11181;51.002;4.356;2023-12-22T06:20:54;10.80;99.90
22035;DHT22;11181;51.002;4.356;2023-12-22T06:23:21;10.80;99.90
22035;DHT22;11181;51.002;4.356;2023-12-22T06:25:47;10.80;99.90
22035;DHT22;11181;51.002;4.356;2023-12-22T06:28:14;10.80;99.90
22035;DHT22;11181;51.002;4.356;2023-12-22T06:30:43;10.80;99.90
22035;DHT22;11181;51.002;4.356;2023-12-22T06:33:12;10.70;99.90
22035;DHT22;11181;51.002;4.356;2023-12-22T06:35:39;10.70;99.90
22035;DHT22;11181;51.002;4.356;2023-12-22T06:38:08;10.60;99.90
22035;DHT22;11181;51.002;4.356;2023-12-22T06:40:37;10.60;99.90
22035;DHT22;11181;51.002;4.356;2023-12-22T06:43:04;10.60;99.90
22035;DHT22;11181;51.002;4.356;2023-12-22T06:45:31;10.60;99.90
22035;DHT22;11181;51.002;4.356;2023-12-22T06:47:58;10.60;99.90
22035;DHT22;11181;51.002;4.356;2023-12-22T06:50:25;10.50;99.90
22035;DHT22;11181;51.002;4.356;2023-12-22T06:52:52;10.40;99.90
22035;DHT22;11181;51.002;4.356;2023-12-22T06:55:20;10.40;99.90
22035;DHT22;11181;51.002;4.356;2023-12-22T06:57:47;10.30;99.90
22035;DHT22;11181;51.002;4.356;2023-12-22T07:00:14;10.30;99.90
22035;DHT22;11181;51.002;4.356;2023-12-22T07:02:41;10.30;99.90
22035;DHT22;11181;51.002;4.356;2023-12-22T07:05:33;10.40;99.90
22035;DHT22;11181;51.002;4.356;2023-12-22T07:08:05;10.40;99.90
22035;DHT22;11181;51.002;4.356;2023-12-22T07:10:34;10.50;99.90
22035;DHT22;11181;51.002;4.356;2023-12-22T07:13:01;10.50;99.90
22035;DHT22;11181;51.002;4.356;2023-12-22T07:15:27;10.50;99.90
22035;DHT22;11181;51.002;4.356;2023-12-22T07:17:57;10.50;99.90
22035;DHT22;11181;51.002;4.356;2023-12-22T07:20:24;10.50;99.90
22035;DHT22;11181;51.002;4.356;2023-12-22T07:22:51;10.40;99.90
22035;DHT22;11181;51.002;4.356;2023-12-22T07:25:19;10.40;99.90
22035;DHT22;11181;51.002;4.356;2023-12-22T07:27:49;10.30;99.90
22035;DHT22;11181;51.002;4.356;2023-12-22T07:30:17;10.30;99.90
22035;DHT22;11181;51.002;4.356;2023-12-22T07:32:44;10.20;99.90
22035;DHT22;11181;51.002;4.356;2023-12-22T07:35:13;10.20;99.90
22035;DHT22;11181;51.002;4.356;2023-12-22T07:37:40;10.20;99.90
22035;DHT22;11181;51.002;4.356;2023-12-22T07:40:08;10.20;99.90
22035;DHT22;11181;51.002;4.356;2023-12-22T07:42:35;10.30;99.90
22035;DHT22;11181;51.002;4.356;2023-12-22T07:45:05;10.20;99.90
22035;DHT22;11181;51.002;4.356;2023-12-22T07:47:33;10.20;99.90
22035;DHT22;11181;51.002;4.356;2023-12-22T07:50:00;10.10;99.90
22035;DHT22;11181;51.002;4.356;2023-12-22T07:52:27;10.20;99.90
22035;DHT22;11181;51.002;4.356;2023-12-22T07:54:54;10.20;99.90
22035;DHT22;11181;51.002;4.356;2023-12-22T07:57:21;10.20;99.90
22035;DHT22;11181;51.002;4.356;2023-12-22T07:59:48;10.30;99.90
22035;DHT22;11181;51.002;4.356;2023-12-22T08:02:16;10.30;99.90
22035;DHT22;11181;51.002;4.356;2023-12-22T08:04:43;10.30;99.90
22035;DHT22;11181;51.002;4.356;2023-12-22T08:07:10;10.30;99.90
22035;DHT22;11181;51.002;4.356;2023-12-22T08:09:37;10.30;99.90
22035;DHT22;11181;51.002;4.356;2023-12-22T08:12:05;10.40;99.90
22035;DHT22;11181;51.002;4.356;2023-12-22T08:14:32;10.40;99.90
22035;DHT22;11181;51.002;4.356;2023-12-22T08:16:59;10.40;99.90
22035;DHT22;11181;51.002;4.356;2023-12-22T08:19:28;10.40;99.90
22035;DHT22;11181;51.002;4.356;2023-12-22T08:21:55;10.50;99.90
22035;DHT22;11181;51.002;4.356;2023-12-22T08:24:22;10.50;99.90
22035;DHT22;11181;51.002;4.356;2023-12-22T08:26:49;10.50;99.90
22035;DHT22;11181;51.002;4.356;2023-12-22T08:29:16;10.50;99.90
22035;DHT22;11181;51.002;4.356;2023-12-22T08:31:44;10.50;99.90
22035;DHT22;11181;51.002;4.356;2023-12-22T08:34:11;10.40;99.90
22035;DHT22;11181;51.002;4.356;2023-12-22T08:36:39;10.40;99.90
22035;DHT22;11181;51.002;4.356;2023-12-22T08:39:07;10.50;99.90
22035;DHT22;11181;51.002;4.356;2023-12-22T08:41:34;10.50;99.90
22035;DHT22;11181;51.002;4.356;2023-12-22T08:44:02;10.50;99.90
22035;DHT22;11181;51.002;4.356;2023-12-22T08:46:29;10.50;99.90
22035;DHT22;11181;51.002;4.356;2023-12-22T08:48:57;10.50;99.90
22035;DHT22;11181;51.002;4.356;2023-12-22T08:51:25;10.50;99.90
22035;DHT22;11181;51.002;4.356;2023-12-22T08:53:53;10.60;99.90
22035;DHT22;11181;51.002;4.356;2023-12-22T08:56:21;10.60;99.90
22035;DHT22;11181;51.002;4.356;2023-12-22T08:58:48;10.60;99.90
22035;DHT22;11181;51.002;4.356;2023-12-22T09:01:17;10.50;99.90
22035;DHT22;11181;51.002;4.356;2023-12-22T09:03:45;10.60;99.90
22035;DHT22;11181;51.002;4.356;2023-12-22T09:06:14;10.60;99.90
22035;DHT22;11181;51.002;4.356;2023-12-22T09:08:41;10.60;99.90
22035;DHT22;11181;51.002;4.356;2023-12-22T09:11:10;10.70;99.90
22035;DHT22;11181;51.002;4.356;2023-12-22T09:13:38;10.70;99.90
22035;DHT22;11181;51.002;4.356;2023-12-22T09:16:05;10.80;99.90
22035;DHT22;11181;51.002;4.356;2023-12-22T09:18:32;10.80;99.90
22035;DHT22;11181;51.002;4.356;2023-12-22T09:20:59;10.80;99.90
22035;DHT22;11181;51.002;4.356;2023-12-22T09:23:26;10.80;99.90
22035;DHT22;11181;51.002;4.356;2023-12-22T09:25:53;10.80;99.90
22035;DHT22;11181;51.002;4.356;2023-12-22T09:28:21;10.90;99.90
22035;DHT22;11181;51.002;4.356;2023-12-22T09:30:48;10.90;99.90
22035;DHT22;11181;51.002;4.356;2023-12-22T09:33:17;10.90;99.90
22035;DHT22;11181;51.002;4.356;2023-12-22T09:35:44;10.90;99.90
22035;DHT22;11181;51.002;4.356;2023-12-22T09:38:11;10.90;99.90
22035;DHT22;11181;51.002;4.356;2023-12-22T09:40:39;10.90;99.90
22035;DHT22;11181;51.002;4.356;2023-12-22T09:43:06;10.90;99.90
22035;DHT22;11181;51.002;4.356;2023-12-22T09:45:35;11.00;99.90
22035;DHT22;11181;51.002;4.356;2023-12-22T09:48:04;11.00;99.90
22035;DHT22;11181;51.002;4.356;2023-12-22T09:50:32;11.00;99.90
22035;DHT22;11181;51.002;4.356;2023-12-22T09:53:00;11.10;99.90
22035;DHT22;11181;51.002;4.356;2023-12-22T09:55:32;11.20;99.90
22035;DHT22;11181;51.002;4.356;2023-12-22T09:58:01;11.10;99.90
22035;DHT22;11181;51.002;4.356;2023-12-22T10:00:31;11.20;99.90
22035;DHT22;11181;51.002;4.356;2023-12-22T10:03:00;11.30;99.90
22035;DHT22;11181;51.002;4.356;2023-12-22T10:05:28;11.10;99.90
22035;DHT22;11181;51.002;4.356;2023-12-22T10:07:56;11.20;99.90
22035;DHT22;11181;51.002;4.356;2023-12-22T10:10:24;11.20;99.90
22035;DHT22;11181;51.002;4.356;2023-12-22T10:12:52;11.20;99.90
22035;DHT22;11181;51.002;4.356;2023-12-22T10:15:21;11.20;99.90
22035;DHT22;11181;51.002;4.356;2023-12-22T10:17:49;11.30;99.90
22035;DHT22;11181;51.002;4.356;2023-12-22T10:20:18;11.40;99.90
22035;DHT22;11181;51.002;4.356;2023-12-22T10:22:45;11.50;99.90
22035;DHT22;11181;51.002;4.356;2023-12-22T10:25:15;11.60;99.90
22035;DHT22;11181;51.002;4.356;2023-12-22T10:27:43;11.70;99.90
22035;DHT22;11181;51.002;4.356;2023-12-22T10:30:10;11.70;99.90
22035;DHT22;11181;51.002;4.356;2023-12-22T10:32:40;11.70;99.90
22035;DHT22;11181;51.002;4.356;2023-12-22T10:35:08;11.70;99.90
22035;DHT22;11181;51.002;4.356;2023-12-22T10:37:37;11.70;99.90
22035;DHT22;11181;51.002;4.356;2023-12-22T10:40:05;11.80;99.90
22035;DHT22;11181;51.002;4.356;2023-12-22T10:42:32;11.80;99.90
22035;DHT22;11181;51.002;4.356;2023-12-22T10:44:59;11.60;99.90
22035;DHT22;11181;51.002;4.356;2023-12-22T10:47:26;11.70;99.90
22035;DHT22;11181;51.002;4.356;2023-12-22T10:49:54;11.50;99.90
22035;DHT22;11181;51.002;4.356;2023-12-22T10:52:21;11.60;99.90
22035;DHT22;11181;51.002;4.356;2023-12-22T10:54:49;11.40;99.90
22035;DHT22;11181;51.002;4.356;2023-12-22T10:57:17;11.40;99.90
22035;DHT22;11181;51.002;4.356;2023-12-22T10:59:46;11.50;99.90
22035;DHT22;11181;51.002;4.356;2023-12-22T11:02:16;11.70;99.90
22035;DHT22;11181;51.002;4.356;2023-12-22T11:04:53;11.70;99.90
22035;DHT22;11181;51.002;4.356;2023-12-22T11:07:23;11.60;99.90
22035;DHT22;11181;51.002;4.356;2023-12-22T11:09:53;11.50;99.90
22035;DHT22;11181;51.002;4.356;2023-12-22T11:12:23;11.50;99.90
22035;DHT22;11181;51.002;4.356;2023-12-22T11:14:53;11.50;99.90
22035;DHT22;11181;51.002;4.356;2023-12-22T11:17:22;11.20;99.90
22035;DHT22;11181;51.002;4.356;2023-12-22T11:19:49;11.30;99.90
22035;DHT22;11181;51.002;4.356;2023-12-22T11:22:17;11.40;99.90
22035;DHT22;11181;51.002;4.356;2023-12-22T11:24:46;11.40;99.90
22035;DHT22;11181;51.002;4.356;2023-12-22T11:27:17;11.50;99.90
22035;DHT22;11181;51.002;4.356;2023-12-22T11:29:45;11.50;99.90
22035;DHT22;11181;51.002;4.356;2023-12-22T11:32:15;11.60;99.90
22035;DHT22;11181;51.002;4.356;2023-12-22T11:34:43;11.50;99.90
22035;DHT22;11181;51.002;4.356;2023-12-22T11:37:11;11.50;99.90
22035;DHT22;11181;51.002;4.356;2023-12-22T11:39:39;11.60;99.90
22035;DHT22;11181;51.002;4.356;2023-12-22T11:42:08;11.60;99.90
22035;DHT22;11181;51.002;4.356;2023-12-22T11:44:37;11.70;99.90
22035;DHT22;11181;51.002;4.356;2023-12-22T11:47:06;11.60;99.90
22035;DHT22;11181;51.002;4.356;2023-12-22T11:49:33;11.70;99.90
22035;DHT22;11181;51.002;4.356;2023-12-22T11:52:10;11.70;99.90
22035;DHT22;11181;51.002;4.356;2023-12-22T11:54:47;11.80;99.90
22035;DHT22;11181;51.002;4.356;2023-12-22T11:57:32;11.80;99.90
22035;DHT22;11181;51.002;4.356;2023-12-22T12:00:02;11.80;99.90
22035;DHT22;11181;51.002;4.356;2023-12-22T12:02:33;11.80;99.90
22035;DHT22;11181;51.002;4.356;2023-12-22T12:05:01;11.80;99.90
22035;DHT22;11181;51.002;4.356;2023-12-22T12:07:52;11.80;99.90
22035;DHT22;11181;51.002;4.356;2023-12-22T12:10:52;11.80;99.90
22035;DHT22;11181;51.002;4.356;2023-12-22T12:13:22;11.80;99.90
22035;DHT22;11181;51.002;4.356;2023-12-22T12:15:52;11.90;99.90
22035;DHT22;11181;51.002;4.356;2023-12-22T12:18:22;11.90;99.90
22035;DHT22;11181;51.002;4.356;2023-12-22T12:20:49;11.90;99.90
22035;DHT22;11181;51.002;4.356;2023-12-22T12:23:16;11.90;99.90
22035;DHT22;11181;51.002;4.356;2023-12-22T12:25:43;12.00;99.90
22035;DHT22;11181;51.002;4.356;2023-12-22T12:28:10;12.00;99.90
22035;DHT22;11181;51.002;4.356;2023-12-22T12:30:38;11.90;99.90
22035;DHT22;11181;51.002;4.356;2023-12-22T12:33:08;12.00;99.90
22035;DHT22;11181;51.002;4.356;2023-12-22T12:35:36;11.90;99.90
22035;DHT22;11181;51.002;4.356;2023-12-22T12:38:04;11.90;99.90
22035;DHT22;11181;51.002;4.356;2023-12-22T12:40:32;11.80;99.90
22035;DHT22;11181;51.002;4.356;2023-12-22T12:43:00;11.90;99.90
22035;DHT22;11181;51.002;4.356;2023-12-22T12:45:28;11.90;99.90
22035;DHT22;11181;51.002;4.356;2023-12-22T12:47:56;11.90;99.90
22035;DHT22;11181;51.002;4.356;2023-12-22T12:50:25;11.90;99.90
22035;DHT22;11181;51.002;4.356;2023-12-22T12:52:54;12.00;99.90
22035;DHT22;11181;51.002;4.356;2023-12-22T12:55:23;12.00;99.90
22035;DHT22;11181;51.002;4.356;2023-12-22T12:57:51;12.00;99.90
22035;DHT22;11181;51.002;4.356;2023-12-22T13:00:24;11.90;99.90
22035;DHT22;11181;51.002;4.356;2023-12-22T13:02:51;11.80;99.90
22035;DHT22;11181;51.002;4.356;2023-12-22T13:05:21;11.90;99.90
22035;DHT22;11181;51.002;4.356;2023-12-22T13:07:50;11.90;99.90
22035;DHT22;11181;51.002;4.356;2023-12-22T13:10:21;11.90;99.90
22035;DHT22;11181;51.002;4.356;2023-12-22T13:12:49;12.00;99.90
22035;DHT22;11181;51.002;4.356;2023-12-22T13:15:16;12.00;99.90
22035;DHT22;11181;51.002;4.356;2023-12-22T13:17:44;12.00;99.90
22035;DHT22;11181;51.002;4.356;2023-12-22T13:20:11;12.00;99.90
22035;DHT22;11181;51.002;4.356;2023-12-22T13:22:40;12.00;99.90
22035;DHT22;11181;51.002;4.356;2023-12-22T13:25:09;12.00;99.90
22035;DHT22;11181;51.002;4.356;2023-12-22T13:27:47;12.00;99.90
22035;DHT22;11181;51.002;4.356;2023-12-22T13:30:14;12.10;99.90
22035;DHT22;11181;51.002;4.356;2023-12-22T13:32:41;12.00;99.90
22035;DHT22;11181;51.002;4.356;2023-12-22T13:35:08;12.00;99.90
22035;DHT22;11181;51.002;4.356;2023-12-22T13:37:41;12.00;99.90
22035;DHT22;11181;51.002;4.356;2023-12-22T13:40:11;11.90;99.90
22035;DHT22;11181;51.002;4.356;2023-12-22T13:42:39;11.90;99.90
22035;DHT22;11181;51.002;4.356;2023-12-22T13:45:10;11.90;99.90
22035;DHT22;11181;51.002;4.356;2023-12-22T13:47:40;11.90;99.90
22035;DHT22;11181;51.002;4.356;2023-12-22T13:50:13;12.00;99.90
22035;DHT22;11181;51.002;4.356;2023-12-22T13:52:41;11.90;99.90
22035;DHT22;11181;51.002;4.356;2023-12-22T13:55:15;11.90;99.90
22035;DHT22;11181;51.002;4.356;2023-12-22T13:57:43;11.90;99.90
22035;DHT22;11181;51.002;4.356;2023-12-22T14:00:29;11.90;99.90
22035;DHT22;11181;51.002;4.356;2023-12-22T14:02:57;11.90;99.90
22035;DHT22;11181;51.002;4.356;2023-12-22T14:05:24;11.90;99.90
22035;DHT22;11181;51.002;4.356;2023-12-22T14:07:52;12.00;99.90
22035;DHT22;11181;51.002;4.356;2023-12-22T14:10:20;12.00;99.90
22035;DHT22;11181;51.002;4.356;2023-12-22T14:12:47;12.10;99.90
22035;DHT22;11181;51.002;4.356;2023-12-22T14:15:14;12.00;99.90
22035;DHT22;11181;51.002;4.356;2023-12-22T14:17:41;12.00;99.90
22035;DHT22;11181;51.002;4.356;2023-12-22T14:20:09;12.00;99.90
22035;DHT22;11181;51.002;4.356;2023-12-22T14:22:37;12.10;99.90
22035;DHT22;11181;51.002;4.356;2023-12-22T14:25:04;12.10;99.90
22035;DHT22;11181;51.002;4.356;2023-12-22T14:27:33;12.00;99.90
22035;DHT22;11181;51.002;4.356;2023-12-22T14:30:00;12.00;99.90
22035;DHT22;11181;51.002;4.356;2023-12-22T14:32:27;12.10;99.90
22035;DHT22;11181;51.002;4.356;2023-12-22T14:34:55;12.10;99.90
22035;DHT22;11181;51.002;4.356;2023-12-22T14:37:22;12.10;99.90
22035;DHT22;11181;51.002;4.356;2023-12-22T14:39:49;12.10;99.90
22035;DHT22;11181;51.002;4.356;2023-12-22T14:42:16;12.10;99.90
22035;DHT22;11181;51.002;4.356;2023-12-22T14:44:44;12.10;99.90
22035;DHT22;11181;51.002;4.356;2023-12-22T14:47:11;12.10;99.90
22035;DHT22;11181;51.002;4.356;2023-12-22T14:49:38;12.20;99.90
22035;DHT22;11181;51.002;4.356;2023-12-22T14:52:05;12.00;99.90
22035;DHT22;11181;51.002;4.356;2023-12-22T14:54:33;12.00;99.90
22035;DHT22;11181;51.002;4.356;2023-12-22T14:57:00;12.00;99.90
22035;DHT22;11181;51.002;4.356;2023-12-22T14:59:27;12.20;99.90
22035;DHT22;11181;51.002;4.356;2023-12-22T15:01:56;12.20;99.90
22035;DHT22;11181;51.002;4.356;2023-12-22T15:04:23;12.20;99.90
22035;DHT22;11181;51.002;4.356;2023-12-22T15:06:51;12.30;99.90
22035;DHT22;11181;51.002;4.356;2023-12-22T15:09:18;12.20;99.90
22035;DHT22;11181;51.002;4.356;2023-12-22T15:11:46;12.20;99.90
22035;DHT22;11181;51.002;4.356;2023-12-22T15:14:13;12.10;99.90
22035;DHT22;11181;51.002;4.356;2023-12-22T15:16:43;12.00;99.90
22035;DHT22;11181;51.002;4.356;2023-12-22T15:19:16;12.10;99.90
22035;DHT22;11181;51.002;4.356;2023-12-22T15:21:43;12.00;99.90
22035;DHT22;11181;51.002;4.356;2023-12-22T15:24:10;12.10;99.90
22035;DHT22;11181;51.002;4.356;2023-12-22T15:26:38;12.10;99.90
22035;DHT22;11181;51.002;4.356;2023-12-22T15:29:09;12.20;99.90
22035;DHT22;11181;51.002;4.356;2023-12-22T15:31:39;12.10;99.90
22035;DHT22;11181;51.002;4.356;2023-12-22T15:34:06;12.20;99.90
22035;DHT22;11181;51.002;4.356;2023-12-22T15:36:37;12.20;99.90